createdAt,value
2023-01-25T00:01:20.949Z,92.40
2023-01-25T00:03:50.732Z,92.46
2023-01-25T00:06:23.448Z,92.46
2023-01-25T00:08:53.545Z,92.95
2023-01-25T00:11:23.417Z,92.68
2023-01-25T00:13:56.164Z,92.44
2023-01-25T00:16:26.889Z,92.63
2023-01-25T00:18:56.665Z,91.80
2023-01-25T00:21:30.299Z,92.07
2023-01-25T00:24:00.185Z,92.77
2023-01-25T00:26:30.181Z,92.52
2023-01-25T00:29:00.330Z,92.13
2023-01-25T00:31:40.227Z,92.86
2023-01-25T00:34:30.180Z,92.26
2023-01-25T00:37:05.935Z,92.84
2023-01-25T00:39:35.793Z,93.07
2023-01-25T00:42:05.781Z,92.16
2023-01-25T00:44:35.643Z,92.50
2023-01-25T00:47:05.507Z,92.14
2023-01-25T00:49:35.916Z,91.68
2023-01-25T00:52:08.692Z,91.94
2023-01-25T00:54:38.548Z,92.93
2023-01-25T00:57:08.563Z,92.32
2023-01-25T00:59:38.778Z,92.78
2023-01-25T01:02:08.660Z,93.27
2023-01-25T01:04:38.541Z,93.31
2023-01-25T01:07:11.126Z,93.36
2023-01-25T01:09:41.195Z,92.77
2023-01-25T01:12:10.999Z,92.96
2023-01-25T01:14:41.165Z,92.75
2023-01-25T01:17:11.236Z,92.70
2023-01-25T01:19:41.255Z,93.02
2023-01-25T01:22:13.776Z,92.65
2023-01-25T01:24:43.650Z,93.20
2023-01-25T01:27:13.563Z,92.81
2023-01-25T01:29:43.315Z,93.08
2023-01-25T01:32:13.343Z,92.99
2023-01-25T01:34:43.871Z,92.32
2023-01-25T01:37:16.197Z,93.55
2023-01-25T01:39:46.099Z,93.35
2023-01-25T01:42:16.230Z,93.74
2023-01-25T01:44:51.443Z,93.77
2023-01-25T01:47:25.496Z,93.42
2023-01-25T01:50:00.403Z,93.54
2023-01-25T01:52:36.673Z,93.83
2023-01-25T01:55:11.950Z,93.69
2023-01-25T01:57:46.166Z,93.43
2023-01-25T02:00:19.416Z,93.11
2023-01-25T02:02:50.866Z,93.29
2023-01-25T02:05:25.600Z,93.22
2023-01-25T02:08:01.954Z,93.20
2023-01-25T02:10:33.385Z,92.76
2023-01-25T02:13:03.444Z,93.04
2023-01-25T02:15:45.295Z,92.64
2023-01-25T02:18:16.268Z,92.48
2023-01-25T02:20:48.227Z,93.04
2023-01-25T02:23:29.778Z,92.52
2023-01-25T02:26:06.004Z,92.68
2023-01-25T02:28:41.521Z,93.34
2023-01-25T02:31:11.578Z,93.31
2023-01-25T02:33:41.533Z,93.20
2023-01-25T02:36:23.251Z,91.63
2023-01-25T02:38:57.538Z,92.68
2023-01-25T02:41:37.104Z,93.31
2023-01-25T02:44:09.538Z,93.22
2023-01-25T02:46:41.114Z,92.57
2023-01-25T02:49:12.708Z,93.10
2023-01-25T02:51:44.855Z,92.47
2023-01-25T02:54:15.743Z,93.30
2023-01-25T02:56:48.283Z,92.90
2023-01-25T02:59:19.140Z,92.36
2023-01-25T03:01:49.159Z,93.23
2023-01-25T03:04:19.065Z,93.19
2023-01-25T03:06:48.794Z,93.40
2023-01-25T03:09:18.818Z,93.02
2023-01-25T03:11:51.173Z,92.92
2023-01-25T03:14:21.040Z,93.29
2023-01-25T03:16:50.850Z,92.93
2023-01-25T03:19:20.632Z,93.43
2023-01-25T03:21:50.368Z,93.86
2023-01-25T03:24:20.271Z,93.91
2023-01-25T03:27:05.147Z,93.50
2023-01-25T03:29:35.158Z,93.44
2023-01-25T03:32:05.453Z,93.23
2023-01-25T03:34:35.319Z,93.32
2023-01-25T03:37:05.283Z,93.38
2023-01-25T03:39:35.109Z,93.19
2023-01-25T03:42:08.370Z,92.88
2023-01-25T03:44:38.094Z,92.76
2023-01-25T03:47:08.033Z,93.17
2023-01-25T03:49:37.949Z,93.33
2023-01-25T03:52:08.368Z,93.33
2023-01-25T03:54:41.018Z,93.45
2023-01-25T03:57:13.429Z,93.37
2023-01-25T03:59:43.472Z,93.16
2023-01-25T04:02:14.818Z,92.32
2023-01-25T04:04:44.663Z,93.11
2023-01-25T04:07:14.792Z,93.79
2023-01-25T04:09:44.948Z,93.71
2023-01-25T04:12:17.404Z,93.27
2023-01-25T04:14:47.122Z,93.43
2023-01-25T04:17:17.000Z,93.84
2023-01-25T04:19:46.854Z,93.92
2023-01-25T04:22:16.980Z,93.52
2023-01-25T04:24:46.988Z,93.42
2023-01-25T04:27:19.451Z,93.49
2023-01-25T04:29:49.446Z,93.99
2023-01-25T04:32:19.425Z,94.45
2023-01-25T04:34:49.301Z,94.39
2023-01-25T04:37:19.028Z,93.95
2023-01-25T04:39:48.909Z,93.48
2023-01-25T04:42:21.372Z,93.45
2023-01-25T04:44:51.198Z,93.40
2023-01-25T04:47:21.095Z,93.70
2023-01-25T04:49:51.129Z,93.50
2023-01-25T04:52:20.899Z,92.90
2023-01-25T04:54:50.691Z,92.48
2023-01-25T04:57:23.154Z,92.81
2023-01-25T04:59:52.963Z,93.58
2023-01-25T05:02:23.068Z,93.57
2023-01-25T05:04:53.115Z,93.78
2023-01-25T05:07:22.957Z,94.10
2023-01-25T05:09:53.128Z,94.71
2023-01-25T05:12:25.578Z,93.90
2023-01-25T05:14:55.962Z,94.24
2023-01-25T05:17:25.807Z,94.35
2023-01-25T05:19:55.644Z,93.33
2023-01-25T05:22:25.778Z,93.76
2023-01-25T05:24:55.829Z,93.78
2023-01-25T05:27:26.121Z,94.10
2023-01-25T05:29:56.161Z,93.37
2023-01-25T05:32:26.885Z,93.72
2023-01-25T05:34:56.692Z,94.20
2023-01-25T05:37:26.424Z,94.85
2023-01-25T05:39:56.509Z,95.15
2023-01-25T05:42:28.913Z,95.40
2023-01-25T05:44:58.718Z,95.25
2023-01-25T05:47:28.887Z,94.43
2023-01-25T05:49:58.698Z,95.03
2023-01-25T05:52:28.583Z,94.93
2023-01-25T05:54:58.636Z,95.47
2023-01-25T05:57:31.753Z,95.19
2023-01-25T06:00:01.510Z,94.88
2023-01-25T06:02:32.161Z,95.03
2023-01-25T06:05:02.013Z,94.28
2023-01-25T06:07:32.723Z,94.26
2023-01-25T06:10:02.810Z,94.44
2023-01-25T06:12:36.292Z,94.84
2023-01-25T06:15:07.175Z,94.78
2023-01-25T06:17:37.283Z,95.36
2023-01-25T06:20:08.074Z,94.35
2023-01-25T06:22:37.978Z,94.21
2023-01-25T06:25:09.392Z,94.51
2023-01-25T06:27:42.620Z,94.65
2023-01-25T06:30:14.164Z,95.00
2023-01-25T06:32:44.057Z,95.21
2023-01-25T06:35:13.816Z,95.56
2023-01-25T06:37:43.571Z,94.99
2023-01-25T06:40:15.008Z,95.29
2023-01-25T06:42:47.426Z,95.31
2023-01-25T06:45:17.772Z,95.55
2023-01-25T06:47:47.552Z,94.79
2023-01-25T06:50:18.241Z,94.76
2023-01-25T06:52:54.848Z,95.21
2023-01-25T06:55:24.881Z,95.79
2023-01-25T06:57:57.336Z,94.85
2023-01-25T07:00:27.364Z,94.83
2023-01-25T07:02:57.460Z,95.30
2023-01-25T07:05:27.281Z,95.84
2023-01-25T07:07:57.266Z,96.12
2023-01-25T07:10:26.964Z,95.65
2023-01-25T07:12:59.599Z,95.42
2023-01-25T07:15:29.375Z,95.65
2023-01-25T07:18:05.600Z,95.67
2023-01-25T07:20:42.369Z,95.19
2023-01-25T07:23:12.231Z,95.29
2023-01-25T07:25:47.021Z,94.83
2023-01-25T07:28:20.529Z,94.98
2023-01-25T07:30:50.449Z,94.45
2023-01-25T07:33:20.613Z,95.17
2023-01-25T07:35:51.124Z,95.61
2023-01-25T07:38:20.946Z,95.61
2023-01-25T07:40:55.320Z,95.49
2023-01-25T07:43:28.241Z,95.43
2023-01-25T07:46:03.905Z,95.63
2023-01-25T07:48:34.022Z,95.66
2023-01-25T07:51:23.061Z,95.55
2023-01-25T07:53:54.412Z,95.49
2023-01-25T07:56:25.385Z,95.69
2023-01-25T07:58:58.803Z,95.05
2023-01-25T08:01:31.253Z,95.20
2023-01-25T08:04:01.260Z,94.94
2023-01-25T08:06:36.101Z,95.29
2023-01-25T08:09:09.920Z,95.53
2023-01-25T08:11:42.675Z,95.43
2023-01-25T08:14:15.465Z,95.52
2023-01-25T08:16:45.267Z,95.28
2023-01-25T08:19:16.072Z,95.17
2023-01-25T08:21:46.087Z,95.06
2023-01-25T08:24:17.308Z,95.06
2023-01-25T08:26:48.109Z,95.14
2023-01-25T08:29:20.686Z,95.17
2023-01-25T08:31:50.587Z,95.24
2023-01-25T08:34:20.520Z,95.08
2023-01-25T08:39:20.656Z,94.49
2023-01-25T08:41:50.584Z,94.32
2023-01-25T08:44:28.807Z,94.96
2023-01-25T08:46:58.782Z,95.15
2023-01-25T08:49:28.791Z,95.04
2023-01-25T08:51:58.654Z,95.42
2023-01-25T08:54:28.435Z,95.50
2023-01-25T08:56:58.340Z,95.22
2023-01-25T08:59:30.977Z,95.33
2023-01-25T09:02:00.801Z,94.57
2023-01-25T09:04:30.888Z,94.75
2023-01-25T09:07:00.830Z,94.98
2023-01-25T09:09:30.800Z,94.87
2023-01-25T09:12:00.673Z,94.72
2023-01-25T09:14:33.464Z,95.03
2023-01-25T09:17:03.325Z,94.83
2023-01-25T09:19:33.262Z,95.53
2023-01-25T09:22:03.814Z,95.38
2023-01-25T09:24:36.897Z,95.23
2023-01-25T09:27:07.176Z,94.74
2023-01-25T09:29:43.708Z,94.72
2023-01-25T09:32:16.226Z,94.48
2023-01-25T09:34:46.090Z,94.29
2023-01-25T09:37:16.111Z,94.35
2023-01-25T09:39:46.302Z,94.38
2023-01-25T09:42:49.698Z,94.10
2023-01-25T09:45:32.279Z,94.87
2023-01-25T09:48:12.450Z,94.71
2023-01-25T09:50:53.033Z,95.05
2023-01-25T09:53:27.209Z,94.70
2023-01-25T09:56:00.385Z,94.93
2023-01-25T09:58:36.518Z,94.45
2023-01-25T10:01:32.838Z,92.86
2023-01-25T10:04:14.906Z,93.24
2023-01-25T10:06:55.242Z,94.42
2023-01-25T10:09:37.000Z,94.65
2023-01-25T10:12:14.285Z,95.16
2023-01-25T10:14:44.253Z,95.06
2023-01-25T10:17:27.108Z,94.72
2023-01-25T10:20:12.665Z,94.98
2023-01-25T10:22:50.100Z,94.41
2023-01-25T10:25:31.714Z,92.46
2023-01-25T10:28:29.858Z,94.28
2023-01-25T10:31:03.969Z,95.21
2023-01-25T10:33:41.970Z,94.69
2023-01-25T10:36:17.643Z,94.56
2023-01-25T10:38:49.712Z,94.80
2023-01-25T10:41:27.066Z,93.46
2023-01-25T10:44:21.872Z,94.16
2023-01-25T10:46:56.936Z,93.96
2023-01-25T10:49:37.440Z,94.02
2023-01-25T10:52:18.891Z,93.50
2023-01-25T10:54:50.374Z,93.90
2023-01-25T10:57:22.514Z,94.57
2023-01-25T10:59:55.434Z,95.14
2023-01-25T11:02:42.452Z,94.71
2023-01-25T11:05:31.572Z,94.24
2023-01-25T11:08:02.731Z,95.09
2023-01-25T11:10:36.358Z,94.28
2023-01-25T11:13:28.482Z,93.93
2023-01-25T11:16:16.897Z,94.30
2023-01-25T11:18:53.893Z,94.36
2023-01-25T11:21:28.534Z,94.42
2023-01-25T11:24:06.777Z,94.53
2023-01-25T11:26:37.814Z,94.11
2023-01-25T11:29:16.452Z,94.35
2023-01-25T11:31:49.285Z,94.51
2023-01-25T11:34:21.054Z,93.90
2023-01-25T11:37:25.585Z,93.56
2023-01-25T11:40:06.898Z,94.08
2023-01-25T11:42:46.816Z,93.43
2023-01-25T11:45:35.949Z,92.53
2023-01-25T11:48:27.178Z,92.04
2023-01-25T11:51:06.914Z,93.14
2023-01-25T11:54:18.708Z,92.88
2023-01-25T11:57:00.657Z,94.30
2023-01-25T11:59:53.372Z,94.17
2023-01-25T12:02:48.517Z,94.17
2023-01-25T12:05:29.219Z,94.24
2023-01-25T12:08:19.434Z,94.20
2023-01-25T12:10:59.085Z,94.11
2023-01-25T12:13:46.785Z,93.73
2023-01-25T12:16:36.405Z,93.93
2023-01-25T12:19:27.196Z,93.46
2023-01-25T12:22:11.786Z,93.87
2023-01-25T12:24:53.194Z,94.07
2023-01-25T12:27:34.329Z,93.51
2023-01-25T12:30:16.784Z,93.22
2023-01-25T12:32:57.281Z,93.66
2023-01-25T12:35:36.142Z,93.56
2023-01-25T12:38:07.826Z,94.26
2023-01-25T12:40:49.713Z,93.94
2023-01-25T12:43:27.191Z,94.27
2023-01-25T12:46:02.460Z,94.25
2023-01-25T12:48:37.482Z,93.32
2023-01-25T12:51:08.247Z,94.17
2023-01-25T12:53:42.470Z,94.01
2023-01-25T12:56:20.421Z,94.58
2023-01-25T12:58:57.875Z,94.51
2023-01-25T13:01:36.531Z,94.14
2023-01-25T13:04:28.783Z,93.86
2023-01-25T13:07:06.602Z,94.00
2023-01-25T13:09:42.625Z,93.83
2023-01-25T13:12:14.963Z,93.75
2023-01-25T13:14:45.267Z,93.46
2023-01-25T13:17:25.533Z,93.00
2023-01-25T13:19:56.259Z,93.72
2023-01-25T13:22:59.015Z,93.52
2023-01-25T13:25:30.541Z,94.13
2023-01-25T13:28:43.249Z,93.42
2023-01-25T13:31:13.467Z,94.60
2023-01-25T13:33:46.149Z,94.38
2023-01-25T13:36:41.578Z,93.78
2023-01-25T13:39:41.290Z,92.95
2023-01-25T13:42:23.795Z,94.03
2023-01-25T13:44:56.939Z,94.35
2023-01-25T13:47:29.008Z,94.05
2023-01-25T13:50:12.005Z,93.33
2023-01-25T13:52:42.180Z,94.05
2023-01-25T13:55:20.991Z,93.30
2023-01-25T13:57:51.642Z,93.83
2023-01-25T14:00:22.793Z,94.11
2023-01-25T14:02:58.021Z,94.36
2023-01-25T14:05:33.330Z,94.65
2023-01-25T14:08:03.402Z,94.92
2023-01-25T14:10:33.333Z,94.73
2023-01-25T14:13:03.963Z,94.63
2023-01-25T14:15:36.739Z,94.58
2023-01-25T14:18:18.998Z,94.12
2023-01-25T14:20:53.750Z,94.38
2023-01-25T14:23:28.255Z,94.13
2023-01-25T14:26:02.287Z,93.84
2023-01-25T14:28:33.510Z,93.74
2023-01-25T14:31:06.200Z,94.28
2023-01-25T14:33:44.576Z,94.15
2023-01-25T14:36:25.136Z,94.22
2023-01-25T14:38:55.998Z,93.85
2023-01-25T14:41:31.186Z,93.74
2023-01-25T14:44:05.192Z,94.51
2023-01-25T14:46:36.708Z,94.72
2023-01-25T14:49:11.232Z,94.42
2023-01-25T14:51:48.404Z,94.20
2023-01-25T14:54:22.582Z,94.13
2023-01-25T14:56:55.778Z,93.94
2023-01-25T14:59:34.063Z,93.31
2023-01-25T15:02:07.283Z,93.41
2023-01-25T15:04:37.395Z,93.94
2023-01-25T15:07:17.958Z,92.81
2023-01-25T15:10:05.052Z,93.41
2023-01-25T15:12:35.750Z,94.01
2023-01-25T15:15:06.133Z,94.05
2023-01-25T15:17:40.766Z,94.29
2023-01-25T15:20:30.450Z,94.84
2023-01-25T15:23:07.148Z,94.84
2023-01-25T15:25:37.125Z,94.70
2023-01-25T15:28:06.978Z,94.09
2023-01-25T15:30:36.853Z,94.53
2023-01-25T15:33:07.010Z,94.14
2023-01-25T15:35:37.652Z,94.21
2023-01-25T15:38:14.445Z,94.35
2023-01-25T15:40:44.818Z,94.32
2023-01-25T15:43:15.741Z,94.65
2023-01-25T15:45:47.398Z,94.58
2023-01-25T15:48:19.845Z,94.33
2023-01-25T15:50:50.104Z,94.24
2023-01-25T15:53:22.802Z,94.58
2023-01-25T15:55:56.860Z,94.75
2023-01-25T15:58:29.502Z,94.59
2023-01-25T16:01:00.520Z,94.01
2023-01-25T16:03:30.881Z,94.34
2023-01-25T16:06:02.325Z,94.84
2023-01-25T16:08:34.901Z,94.86
2023-01-25T16:11:04.798Z,94.68
2023-01-25T16:13:34.964Z,94.88
2023-01-25T16:16:04.894Z,94.77
2023-01-25T16:18:34.814Z,94.91
2023-01-25T16:21:04.590Z,94.51
2023-01-25T16:23:37.089Z,94.55
2023-01-25T16:26:07.793Z,94.34
2023-01-25T16:28:37.633Z,94.52
2023-01-25T16:31:07.545Z,95.06
2023-01-25T16:33:37.396Z,94.92
2023-01-25T16:36:17.240Z,95.15
2023-01-25T16:38:49.671Z,94.79
2023-01-25T16:41:19.924Z,94.57
2023-01-25T16:43:53.646Z,94.87
2023-01-25T16:46:26.340Z,94.46
2023-01-25T16:48:56.456Z,94.84
2023-01-25T16:51:28.332Z,94.68
2023-01-25T16:54:01.323Z,94.87
2023-01-25T16:56:33.538Z,94.76
2023-01-25T16:59:04.604Z,95.29
2023-01-25T17:01:34.962Z,94.96
2023-01-25T17:04:04.894Z,95.24
2023-01-25T17:06:36.731Z,95.27
2023-01-25T17:09:22.185Z,94.94
2023-01-25T17:11:53.099Z,95.18
2023-01-25T17:14:23.346Z,94.57
2023-01-25T17:16:54.042Z,95.06
2023-01-25T17:19:23.983Z,94.58
2023-01-25T17:21:53.889Z,94.48
2023-01-25T17:24:26.431Z,94.37
2023-01-25T17:26:59.737Z,94.22
2023-01-25T17:29:29.912Z,94.61
2023-01-25T17:32:00.497Z,94.67
2023-01-25T17:34:30.418Z,94.98
2023-01-25T17:37:00.514Z,94.79
2023-01-25T17:39:33.380Z,94.66
2023-01-25T17:42:03.181Z,95.25
2023-01-25T17:44:33.028Z,95.17
2023-01-25T17:47:02.940Z,94.55
2023-01-25T17:49:33.738Z,94.92
2023-01-25T17:52:04.804Z,94.52
2023-01-25T17:54:37.607Z,94.61
2023-01-25T17:57:07.436Z,95.06
2023-01-25T17:59:37.334Z,94.53
2023-01-25T18:02:07.529Z,95.02
2023-01-25T18:04:37.602Z,94.95
2023-01-25T18:07:07.433Z,94.91
2023-01-25T18:09:39.798Z,94.80
2023-01-25T18:12:10.141Z,94.39
2023-01-25T18:14:40.076Z,94.91
2023-01-25T18:17:09.971Z,94.95
2023-01-25T18:19:40.299Z,94.89
2023-01-25T18:22:10.107Z,94.71
2023-01-25T18:24:42.802Z,95.03
2023-01-25T18:27:21.745Z,95.24
2023-01-25T18:29:57.360Z,94.95
2023-01-25T18:32:27.201Z,94.97
2023-01-25T18:34:57.304Z,94.42
2023-01-25T18:37:33.479Z,94.83
2023-01-25T18:40:06.064Z,95.28
2023-01-25T18:42:35.812Z,95.53
2023-01-25T18:45:06.312Z,95.69
2023-01-25T18:47:36.765Z,95.57
2023-01-25T18:50:07.399Z,95.44
2023-01-25T18:52:38.081Z,95.73
2023-01-25T18:55:11.482Z,95.64
2023-01-25T18:57:41.787Z,94.77
2023-01-25T19:00:15.098Z,94.45
2023-01-25T19:02:45.068Z,95.01
2023-01-25T19:05:18.647Z,95.15
2023-01-25T19:07:48.356Z,94.86
2023-01-25T19:10:21.578Z,94.88
2023-01-25T19:12:51.427Z,95.57
2023-01-25T19:15:21.189Z,95.37
2023-01-25T19:17:50.909Z,95.17
2023-01-25T19:20:21.587Z,95.38
2023-01-25T19:22:51.470Z,95.52
2023-01-25T19:25:24.537Z,95.29
2023-01-25T19:27:54.721Z,95.84
2023-01-25T19:30:24.696Z,95.61
2023-01-25T19:32:54.414Z,95.25
2023-01-25T19:35:24.181Z,94.36
2023-01-25T19:37:54.059Z,95.15
2023-01-25T19:40:26.451Z,94.65
2023-01-25T19:42:56.346Z,95.45
2023-01-25T19:45:26.295Z,95.22
2023-01-25T19:47:56.492Z,95.01
2023-01-25T19:50:26.480Z,94.88
2023-01-25T19:52:58.036Z,95.09
2023-01-25T19:55:30.747Z,95.37
2023-01-25T19:58:00.477Z,95.11
2023-01-25T20:00:30.412Z,95.14
2023-01-25T20:03:14.821Z,95.41
2023-01-25T20:05:45.925Z,95.46
2023-01-25T20:08:15.727Z,95.12
2023-01-25T20:10:48.597Z,95.33
2023-01-25T20:13:18.381Z,95.35
2023-01-25T20:15:51.188Z,94.46
2023-01-25T20:18:21.710Z,94.68
2023-01-25T20:20:58.220Z,94.65
2023-01-25T20:23:28.321Z,94.72
2023-01-25T20:26:05.924Z,94.77
2023-01-25T20:28:37.405Z,95.26
2023-01-25T20:31:07.891Z,95.16
2023-01-25T20:33:38.015Z,95.42
2023-01-25T20:36:09.173Z,95.13
2023-01-25T20:38:39.630Z,95.58
2023-01-25T20:41:14.266Z,95.84
2023-01-25T20:43:49.237Z,95.88
2023-01-25T20:46:19.639Z,94.56
2023-01-25T20:48:49.744Z,95.14
2023-01-25T20:51:21.641Z,95.62
2023-01-25T20:53:54.592Z,95.89
2023-01-25T20:56:27.072Z,95.89
2023-01-25T20:58:57.451Z,96.21
2023-01-25T21:01:30.453Z,96.09
2023-01-25T21:04:01.034Z,95.87
2023-01-25T21:06:31.362Z,95.99
2023-01-25T21:09:01.270Z,95.35
2023-01-25T21:11:33.889Z,95.56
2023-01-25T21:14:03.930Z,95.72
2023-01-25T21:16:33.868Z,96.25
2023-01-25T21:19:08.464Z,96.67
2023-01-25T21:21:38.698Z,95.78
2023-01-25T21:24:09.859Z,95.10
2023-01-25T21:26:43.571Z,95.12
2023-01-25T21:29:13.418Z,95.38
2023-01-25T21:31:46.478Z,96.04
2023-01-25T21:34:16.293Z,96.49
2023-01-25T21:36:46.086Z,96.47
2023-01-25T21:39:16.048Z,96.93
2023-01-25T21:41:48.574Z,96.52
2023-01-25T21:44:30.942Z,96.34
2023-01-25T21:47:28.478Z,95.79
2023-01-25T21:50:02.852Z,95.72
2023-01-25T21:52:34.645Z,96.59
2023-01-25T21:55:05.748Z,95.99
2023-01-25T21:57:41.031Z,96.34
2023-01-25T22:00:12.628Z,96.19
2023-01-25T22:02:42.701Z,96.35
2023-01-25T22:05:12.908Z,96.39
2023-01-25T22:07:42.652Z,96.40
2023-01-25T22:10:13.977Z,95.79
2023-01-25T22:12:46.439Z,96.01
2023-01-25T22:15:16.435Z,96.64
2023-01-25T22:17:46.318Z,96.76
2023-01-25T22:20:16.219Z,96.93
2023-01-25T22:22:45.922Z,96.47
2023-01-25T22:25:15.664Z,96.67
2023-01-25T22:27:56.083Z,96.54
2023-01-25T22:30:26.020Z,96.85
2023-01-25T22:32:55.818Z,96.51
2023-01-25T22:35:25.660Z,96.60
2023-01-25T22:37:55.680Z,95.89
2023-01-25T22:40:25.450Z,96.05
2023-01-25T22:42:57.868Z,95.52
2023-01-25T22:45:27.708Z,96.05
2023-01-25T22:47:57.477Z,95.88
2023-01-25T22:50:27.217Z,95.71
2023-01-25T22:52:56.906Z,96.09
2023-01-25T22:55:26.789Z,96.27
2023-01-25T22:57:59.096Z,95.62
2023-01-25T23:00:29.151Z,95.78
2023-01-25T23:02:59.121Z,96.22
2023-01-25T23:05:29.955Z,96.33
2023-01-25T23:08:00.443Z,96.20
2023-01-25T23:10:30.248Z,95.96
2023-01-25T23:13:02.583Z,95.27
2023-01-25T23:15:32.655Z,95.85
2023-01-25T23:18:14.874Z,95.28
2023-01-25T23:20:44.939Z,95.07
2023-01-25T23:23:15.173Z,95.78
2023-01-25T23:25:44.945Z,96.49
2023-01-25T23:28:17.771Z,96.26
2023-01-25T23:30:47.631Z,96.19
2023-01-25T23:33:17.500Z,95.89
2023-01-25T23:35:47.292Z,95.98
2023-01-25T23:38:17.762Z,95.76
2023-01-25T23:40:47.635Z,96.00
2023-01-25T23:43:19.955Z,96.27
2023-01-25T23:45:49.693Z,96.26
2023-01-25T23:48:19.365Z,96.64
2023-01-25T23:50:49.089Z,97.06
2023-01-25T23:53:18.853Z,96.79
2023-01-25T23:55:55.098Z,96.14
2023-01-25T23:58:28.363Z,95.93
